createdAt,value
2023-04-09T00:02:16.430Z,63.21
2023-04-09T00:04:43.683Z,63.69
2023-04-09T00:07:11.142Z,62.08
2023-04-09T00:09:38.731Z,62.83
2023-04-09T00:12:06.245Z,62.69
2023-04-09T00:14:33.550Z,61.00
2023-04-09T00:17:01.178Z,60.33
2023-04-09T00:19:28.871Z,60.24
2023-04-09T00:21:56.714Z,60.60
2023-04-09T00:24:24.155Z,62.09
2023-04-09T00:26:51.718Z,62.60
2023-04-09T00:29:19.093Z,61.38
2023-04-09T00:31:46.538Z,59.73
2023-04-09T00:34:13.910Z,57.93
2023-04-09T00:36:41.299Z,59.03
2023-04-09T00:39:08.594Z,60.65
2023-04-09T00:41:36.061Z,62.16
2023-04-09T00:44:03.329Z,65.69
2023-04-09T00:46:32.188Z,66.44
2023-04-09T00:49:00.149Z,64.08
2023-04-09T00:51:27.344Z,61.61
2023-04-09T00:54:54.512Z,60.21
2023-04-09T00:58:17.253Z,57.22
2023-04-09T01:03:47.313Z,60.57
2023-04-09T01:06:46.126Z,62.06
2023-04-09T01:09:24.455Z,66.44
2023-04-09T01:12:03.176Z,66.40
2023-04-09T01:14:41.318Z,63.67
2023-04-09T01:17:19.434Z,61.66
2023-04-09T01:19:53.875Z,60.32
2023-04-09T01:22:33.255Z,58.15
2023-04-09T01:25:14.665Z,57.68
2023-04-09T01:28:16.926Z,59.39
2023-04-09T01:30:49.096Z,61.00
2023-04-09T01:33:19.477Z,64.96
2023-04-09T01:35:49.225Z,67.09
2023-04-09T01:38:20.331Z,64.70
2023-04-09T01:40:49.183Z,62.10
2023-04-09T01:43:18.330Z,60.47
2023-04-09T01:45:46.211Z,59.10
2023-04-09T01:48:15.614Z,57.15
2023-04-09T01:50:43.817Z,58.48
2023-04-09T01:53:11.993Z,60.19
2023-04-09T01:55:39.174Z,60.67
2023-04-09T01:58:06.399Z,64.29
2023-04-09T02:00:40.942Z,66.91
2023-04-09T02:03:47.990Z,64.43
2023-04-09T02:06:23.757Z,61.57
2023-04-09T02:08:54.329Z,59.86
2023-04-09T02:11:24.267Z,57.52
2023-04-09T02:13:55.092Z,57.46
2023-04-09T02:16:23.571Z,59.13
2023-04-09T02:18:57.229Z,60.68
2023-04-09T02:21:24.758Z,62.04
2023-04-09T02:23:52.094Z,64.83
2023-04-09T02:26:19.506Z,66.83
2023-04-09T02:28:46.730Z,64.82
2023-04-09T02:31:14.403Z,62.19
2023-04-09T02:33:42.949Z,60.70
2023-04-09T02:36:13.870Z,59.48
2023-04-09T02:38:42.919Z,56.80
2023-04-09T02:41:10.373Z,57.57
2023-04-09T02:43:37.782Z,59.34
2023-04-09T02:46:05.627Z,60.93
2023-04-09T02:48:33.395Z,62.12
2023-04-09T02:51:00.579Z,65.07
2023-04-09T02:53:27.894Z,65.63
2023-04-09T02:55:55.508Z,65.04
2023-04-09T02:58:22.679Z,65.04
2023-04-09T03:00:50.198Z,65.11
2023-04-09T03:03:17.997Z,64.87
2023-04-09T03:05:46.266Z,65.26
2023-04-09T03:08:13.547Z,66.32
2023-04-09T03:10:41.181Z,67.18
2023-04-09T03:13:08.855Z,65.17
2023-04-09T03:15:36.136Z,63.47
2023-04-09T03:18:03.748Z,63.09
2023-04-09T03:20:31.486Z,61.92
2023-04-09T03:22:58.627Z,60.91
2023-04-09T03:25:25.912Z,59.57
2023-04-09T03:27:53.563Z,57.36
2023-04-09T03:30:21.274Z,58.28
2023-04-09T03:32:48.693Z,60.17
2023-04-09T03:35:16.293Z,61.75
2023-04-09T03:37:43.771Z,65.36
2023-04-09T03:40:11.763Z,66.24
2023-04-09T03:42:39.568Z,64.38
2023-04-09T03:45:07.371Z,62.10
2023-04-09T03:47:35.372Z,60.25
2023-04-09T03:50:03.281Z,57.71
2023-04-09T03:52:30.682Z,57.47
2023-04-09T03:54:57.950Z,59.20
2023-04-09T03:57:25.651Z,60.97
2023-04-09T03:59:52.908Z,62.38
2023-04-09T04:02:20.304Z,65.85
2023-04-09T04:04:48.344Z,66.89
2023-04-09T04:07:15.758Z,64.48
2023-04-09T04:09:43.213Z,62.40
2023-04-09T04:12:10.828Z,60.93
2023-04-09T04:14:37.950Z,59.94
2023-04-09T04:17:05.352Z,57.90
2023-04-09T04:19:32.980Z,57.47
2023-04-09T04:22:00.272Z,58.37
2023-04-09T04:24:28.073Z,60.70
2023-04-09T04:26:55.285Z,64.39
2023-04-09T04:29:22.839Z,67.49
2023-04-09T04:31:50.195Z,65.31
2023-04-09T04:34:17.416Z,62.74
2023-04-09T04:36:45.067Z,61.08
2023-04-09T04:39:12.796Z,59.65
2023-04-09T04:41:40.094Z,57.36
2023-04-09T04:44:08.074Z,57.55
2023-04-09T04:46:35.672Z,59.43
2023-04-09T04:49:02.940Z,61.18
2023-04-09T04:51:32.636Z,63.48
2023-04-09T04:54:00.202Z,66.30
2023-04-09T04:56:27.462Z,64.73
2023-04-09T04:58:54.971Z,62.90
2023-04-09T05:01:22.509Z,61.08
2023-04-09T05:03:49.691Z,59.82
2023-04-09T05:06:17.084Z,57.41
2023-04-09T05:08:44.762Z,57.09
2023-04-09T05:11:13.392Z,58.53
2023-04-09T05:13:41.162Z,60.57
2023-04-09T05:16:08.684Z,64.84
2023-04-09T05:18:36.644Z,67.05
2023-04-09T05:21:04.268Z,64.65
2023-04-09T05:23:31.639Z,62.54
2023-04-09T05:25:58.920Z,60.89
2023-04-09T05:28:29.006Z,59.45
2023-04-09T05:30:56.620Z,57.30
2023-04-09T05:33:23.811Z,57.57
2023-04-09T05:35:51.648Z,59.56
2023-04-09T05:38:19.685Z,61.22
2023-04-09T05:40:49.547Z,64.84
2023-04-09T05:43:16.928Z,66.39
2023-04-09T05:45:44.951Z,64.23
2023-04-09T05:48:12.366Z,62.23
2023-04-09T05:50:53.490Z,60.88
2023-04-09T05:53:23.513Z,60.18
2023-04-09T05:55:50.911Z,58.21
2023-04-09T05:58:22.077Z,58.06
2023-04-09T06:00:52.503Z,60.32
2023-04-09T06:03:20.006Z,62.25
2023-04-09T06:05:47.519Z,66.64
2023-04-09T06:08:15.073Z,67.01
2023-04-09T06:10:42.422Z,64.54
2023-04-09T06:13:10.913Z,63.00
2023-04-09T06:15:39.977Z,61.64
2023-04-09T06:18:07.348Z,61.00
2023-04-09T06:20:34.699Z,60.33
2023-04-09T06:23:02.811Z,58.43
2023-04-09T06:25:30.198Z,58.35
2023-04-09T06:27:57.727Z,60.97
2023-04-09T06:30:25.649Z,64.99
2023-04-09T06:32:54.930Z,66.69
2023-04-09T06:35:22.972Z,64.90
2023-04-09T06:37:51.164Z,63.36
2023-04-09T06:40:20.702Z,62.19
2023-04-09T06:42:49.548Z,61.76
2023-04-09T06:45:17.250Z,61.12
2023-04-09T06:47:44.702Z,60.02
2023-04-09T06:50:11.916Z,57.99
2023-04-09T06:52:39.603Z,58.03
2023-04-09T06:55:07.195Z,59.24
2023-04-09T06:57:34.400Z,61.05
2023-04-09T07:00:02.373Z,64.88
2023-04-09T07:02:29.679Z,66.92
2023-04-09T07:04:57.133Z,64.92
2023-04-09T07:07:25.841Z,62.60
2023-04-09T07:09:54.148Z,61.41
2023-04-09T07:12:36.267Z,60.43
2023-04-09T07:15:06.650Z,58.94
2023-04-09T07:17:35.015Z,58.42
2023-04-09T07:20:03.071Z,60.35
2023-04-09T07:22:31.310Z,61.82
2023-04-09T07:24:58.645Z,65.49
2023-04-09T07:27:28.297Z,66.82
2023-04-09T07:30:00.441Z,63.96
2023-04-09T07:32:28.909Z,61.66
2023-04-09T07:34:57.046Z,59.92
2023-04-09T07:37:24.321Z,57.65
2023-04-09T07:39:54.560Z,58.06
2023-04-09T07:42:22.475Z,59.67
2023-04-09T07:44:50.166Z,61.58
2023-04-09T07:47:17.781Z,65.36
2023-04-09T07:49:45.137Z,66.40
2023-04-09T07:52:12.641Z,63.52
2023-04-09T07:54:40.258Z,61.65
2023-04-09T07:57:07.519Z,60.63
2023-04-09T07:59:35.617Z,58.27
2023-04-09T08:02:03.765Z,57.69
2023-04-09T08:04:31.292Z,59.87
2023-04-09T08:06:58.893Z,61.47
2023-04-09T08:09:26.592Z,64.71
2023-04-09T08:11:53.855Z,66.69
2023-04-09T08:14:21.713Z,65.35
2023-04-09T08:16:51.248Z,63.65
2023-04-09T08:19:20.557Z,61.81
2023-04-09T08:21:50.035Z,60.19
2023-04-09T08:24:18.419Z,58.25
2023-04-09T08:26:46.077Z,58.84
2023-04-09T08:29:14.101Z,60.58
2023-04-09T08:31:42.522Z,63.36
2023-04-09T08:34:09.976Z,65.56
2023-04-09T08:36:37.481Z,63.17
2023-04-09T08:39:05.202Z,61.83
2023-04-09T08:41:32.588Z,61.18
2023-04-09T08:44:01.183Z,60.37
2023-04-09T08:46:29.295Z,59.72
2023-04-09T08:48:57.528Z,58.11
2023-04-09T08:51:25.561Z,58.51
2023-04-09T08:54:04.409Z,60.13
2023-04-09T08:56:33.061Z,61.64
2023-04-09T08:59:00.185Z,64.69
2023-04-09T09:01:30.483Z,65.79
2023-04-09T09:04:04.590Z,64.36
2023-04-09T09:06:35.317Z,63.37
2023-04-09T09:09:07.053Z,61.85
2023-04-09T09:11:39.110Z,60.70
2023-04-09T09:14:11.306Z,60.00
2023-04-09T09:16:44.387Z,57.95
2023-04-09T09:19:33.934Z,57.36
2023-04-09T09:22:06.657Z,59.28
2023-04-09T09:24:34.858Z,60.92
2023-04-09T09:27:03.443Z,64.73
2023-04-09T09:29:31.368Z,66.15
2023-04-09T09:31:59.145Z,64.46
2023-04-09T09:34:26.481Z,62.62
2023-04-09T09:36:54.267Z,61.19
2023-04-09T09:39:22.738Z,60.74
2023-04-09T09:42:08.761Z,60.43
2023-04-09T09:44:36.285Z,60.09
2023-04-09T09:47:05.186Z,59.73
2023-04-09T09:49:32.829Z,58.25
2023-04-09T09:52:03.270Z,58.66
2023-04-09T09:54:49.245Z,59.92
2023-04-09T09:57:19.393Z,61.46
2023-04-09T10:00:02.070Z,64.89
2023-04-09T10:02:35.133Z,66.03
2023-04-09T10:05:02.630Z,63.88
2023-04-09T10:07:31.238Z,62.00
2023-04-09T10:09:59.515Z,60.33
2023-04-09T10:12:28.151Z,59.85
2023-04-09T10:14:58.765Z,58.78
2023-04-09T10:17:26.971Z,58.16
2023-04-09T10:20:13.978Z,59.32
2023-04-09T10:22:46.373Z,60.68
2023-04-09T10:25:14.065Z,63.96
2023-04-09T10:27:43.344Z,64.56
2023-04-09T10:30:11.320Z,62.95
2023-04-09T10:32:40.144Z,60.53
2023-04-09T10:35:10.618Z,58.29
2023-04-09T10:37:37.977Z,56.92
2023-04-09T10:40:05.972Z,59.34
2023-04-09T10:42:38.096Z,61.14
2023-04-09T10:45:07.449Z,64.37
2023-04-09T10:47:40.471Z,65.37
2023-04-09T10:50:28.527Z,63.00
2023-04-09T10:52:58.267Z,61.67
2023-04-09T10:55:37.208Z,59.76
2023-04-09T10:58:13.280Z,56.55
2023-04-09T11:00:45.927Z,56.25
2023-04-09T11:03:31.289Z,57.87
2023-04-09T11:06:02.435Z,58.29
2023-04-09T11:08:34.488Z,62.84
2023-04-09T11:11:02.848Z,63.42
2023-04-09T11:13:32.213Z,61.56
2023-04-09T11:16:02.026Z,60.35
2023-04-09T11:18:31.120Z,60.07
2023-04-09T11:21:04.011Z,59.36
2023-04-09T11:23:33.098Z,55.14
2023-04-09T11:26:00.420Z,56.21
2023-04-09T11:28:28.131Z,56.97
2023-04-09T11:30:55.865Z,58.11
2023-04-09T11:33:23.119Z,60.18
2023-04-09T11:35:51.805Z,60.50
2023-04-09T11:38:19.560Z,62.77
2023-04-09T11:40:49.987Z,62.09
2023-04-09T11:43:18.580Z,59.52
2023-04-09T11:45:48.815Z,55.87
2023-04-09T11:48:18.849Z,54.99
2023-04-09T11:50:48.189Z,56.31
2023-04-09T11:53:23.021Z,57.55
2023-04-09T11:55:52.473Z,59.03
2023-04-09T11:58:24.047Z,58.51
2023-04-09T12:00:56.868Z,58.78
2023-04-09T12:03:33.621Z,59.54
2023-04-09T12:06:03.533Z,60.10
2023-04-09T12:08:32.196Z,61.47
2023-04-09T12:11:09.657Z,63.12
2023-04-09T12:13:36.894Z,62.89
2023-04-09T12:16:04.316Z,59.98
2023-04-09T12:18:32.116Z,56.16
2023-04-09T12:20:59.560Z,55.66
2023-04-09T12:23:26.788Z,56.42
2023-04-09T12:25:55.700Z,56.84
2023-04-09T12:28:22.949Z,56.76
2023-04-09T12:30:51.667Z,56.36
2023-04-09T12:33:20.009Z,56.88
2023-04-09T12:35:47.545Z,58.10
2023-04-09T12:38:14.992Z,58.19
2023-04-09T12:40:42.677Z,58.80
2023-04-09T12:43:09.816Z,58.12
2023-04-09T12:45:37.119Z,58.59
2023-04-09T12:48:04.936Z,59.62
2023-04-09T12:50:32.209Z,60.22
2023-04-09T12:52:59.547Z,59.96
2023-04-09T12:55:27.322Z,59.63
2023-04-09T12:57:54.645Z,60.29
2023-04-09T13:00:21.894Z,59.77
2023-04-09T13:02:49.264Z,60.12
2023-04-09T13:05:16.673Z,60.92
2023-04-09T13:07:43.990Z,60.66
2023-04-09T13:10:11.598Z,60.30
2023-04-09T13:12:38.824Z,60.74
2023-04-09T13:15:07.084Z,60.83
2023-04-09T13:17:34.838Z,60.61
2023-04-09T13:20:02.316Z,60.36
2023-04-09T13:22:29.664Z,59.57
2023-04-09T13:24:57.849Z,59.80
2023-04-09T13:27:25.360Z,59.97
2023-04-09T13:29:52.640Z,59.22
2023-04-09T13:32:22.832Z,58.84
2023-04-09T13:34:50.504Z,59.03
2023-04-09T13:37:17.817Z,59.10
2023-04-09T13:39:45.251Z,59.08
2023-04-09T13:42:14.305Z,58.93
2023-04-09T13:44:45.154Z,59.69
2023-04-09T13:47:14.002Z,60.11
2023-04-09T13:49:42.923Z,59.37
2023-04-09T13:52:11.556Z,59.63
2023-04-09T13:54:39.190Z,59.31
2023-04-09T13:57:06.584Z,59.83
2023-04-09T13:59:33.880Z,59.51
2023-04-09T14:02:02.035Z,59.57
2023-04-09T14:04:29.390Z,58.55
2023-04-09T14:06:57.988Z,58.87
2023-04-09T14:09:25.990Z,59.47
2023-04-09T14:11:55.277Z,58.77
2023-04-09T14:14:22.555Z,59.07
2023-04-09T14:16:51.225Z,59.66
2023-04-09T14:19:18.539Z,59.57
2023-04-09T14:21:46.581Z,61.08
2023-04-09T14:24:14.197Z,60.96
2023-04-09T14:26:41.457Z,62.20
2023-04-09T14:29:08.671Z,62.13
2023-04-09T14:31:36.364Z,63.50
2023-04-09T14:34:03.854Z,63.57
2023-04-09T14:36:32.265Z,62.88
2023-04-09T14:38:59.718Z,62.04
2023-04-09T14:41:27.438Z,61.71
2023-04-09T14:43:54.649Z,61.34
2023-04-09T14:46:22.956Z,59.78
2023-04-09T14:48:50.471Z,59.17
2023-04-09T14:51:18.215Z,60.46
2023-04-09T14:53:45.397Z,61.83
2023-04-09T14:56:12.608Z,64.70
2023-04-09T14:58:40.111Z,64.31
2023-04-09T15:01:08.441Z,64.71
2023-04-09T15:03:35.976Z,60.65
2023-04-09T15:06:03.657Z,62.37
2023-04-09T15:08:31.218Z,62.16
2023-04-09T15:10:58.404Z,62.74
2023-04-09T15:13:25.740Z,60.30
2023-04-09T15:15:53.563Z,58.31
2023-04-09T15:18:21.904Z,57.39
2023-04-09T15:20:50.953Z,58.18
2023-04-09T15:23:18.590Z,59.00
2023-04-09T15:25:45.747Z,60.49
2023-04-09T15:28:13.011Z,61.75
2023-04-09T15:30:41.372Z,64.46
2023-04-09T15:33:08.654Z,65.93
2023-04-09T15:35:36.823Z,64.47
2023-04-09T15:38:04.425Z,62.46
2023-04-09T15:40:32.477Z,60.04
2023-04-09T15:43:00.115Z,57.93
2023-04-09T15:45:27.487Z,57.64
2023-04-09T15:47:54.978Z,58.46
2023-04-09T15:50:22.616Z,58.93
2023-04-09T15:52:49.899Z,60.53
2023-04-09T15:55:17.149Z,60.95
2023-04-09T15:57:47.276Z,63.58
2023-04-09T16:00:15.874Z,63.78
2023-04-09T16:02:43.731Z,62.08
2023-04-09T16:05:11.592Z,60.64
2023-04-09T16:07:40.685Z,58.98
2023-04-09T16:10:08.642Z,57.72
2023-04-09T16:12:36.304Z,58.06
2023-04-09T16:15:03.864Z,58.90
2023-04-09T16:17:31.482Z,59.90
2023-04-09T16:20:02.034Z,60.54
2023-04-09T16:22:30.094Z,61.30
2023-04-09T16:24:58.634Z,63.55
2023-04-09T16:27:25.921Z,64.67
2023-04-09T16:29:53.846Z,63.75
2023-04-09T16:32:21.752Z,62.16
2023-04-09T16:34:49.034Z,60.88
2023-04-09T16:37:17.369Z,58.44
2023-04-09T16:39:44.884Z,57.86
2023-04-09T16:42:12.638Z,58.75
2023-04-09T16:44:40.210Z,59.77
2023-04-09T16:47:08.727Z,60.56
2023-04-09T16:49:36.087Z,61.26
2023-04-09T16:52:03.296Z,63.72
2023-04-09T16:54:31.392Z,64.77
2023-04-09T16:56:59.267Z,63.89
2023-04-09T16:59:26.550Z,62.33
2023-04-09T17:01:54.317Z,60.83
2023-04-09T17:04:21.795Z,59.75
2023-04-09T17:06:49.151Z,57.64
2023-04-09T17:09:17.194Z,57.04
2023-04-09T17:11:45.110Z,58.27
2023-04-09T17:14:12.904Z,59.36
2023-04-09T17:16:40.585Z,60.57
2023-04-09T17:19:09.382Z,61.26
2023-04-09T17:21:37.117Z,64.00
2023-04-09T17:24:06.240Z,65.56
2023-04-09T17:26:33.489Z,64.22
2023-04-09T17:29:00.898Z,62.38
2023-04-09T17:31:28.673Z,61.32
2023-04-09T17:33:56.274Z,60.39
2023-04-09T17:36:23.496Z,58.92
2023-04-09T17:38:53.346Z,58.77
2023-04-09T17:41:21.327Z,59.54
2023-04-09T17:43:48.693Z,60.73
2023-04-09T17:46:17.492Z,61.80
2023-04-09T17:48:45.046Z,63.75
2023-04-09T17:51:20.485Z,65.77
2023-04-09T17:53:49.108Z,65.58
2023-04-09T17:56:17.569Z,64.50
2023-04-09T17:58:46.192Z,62.77
2023-04-09T18:01:14.128Z,61.56
2023-04-09T18:03:46.345Z,60.20
2023-04-09T18:06:16.216Z,58.79
2023-04-09T18:08:45.216Z,58.85
2023-04-09T18:11:14.492Z,60.02
2023-04-09T18:13:48.118Z,61.19
2023-04-09T18:16:15.869Z,64.41
2023-04-09T18:18:43.366Z,65.56
2023-04-09T18:21:10.949Z,64.88
2023-04-09T18:23:40.634Z,64.77
2023-04-09T18:26:08.287Z,63.60
2023-04-09T18:28:36.759Z,63.09
2023-04-09T18:31:04.200Z,62.98
2023-04-09T18:33:32.101Z,62.94
2023-04-09T18:36:03.122Z,63.13
2023-04-09T18:38:30.880Z,62.82
2023-04-09T18:40:58.327Z,62.31
2023-04-09T18:43:26.999Z,62.23
2023-04-09T18:45:54.461Z,62.75
2023-04-09T18:48:21.751Z,62.61
2023-04-09T18:50:49.778Z,62.13
2023-04-09T18:53:16.920Z,62.33
2023-04-09T18:55:44.249Z,62.14
2023-04-09T18:58:15.684Z,62.08
2023-04-09T19:00:44.001Z,61.60
2023-04-09T19:03:12.720Z,61.74
2023-04-09T19:05:41.057Z,62.16
2023-04-09T19:08:08.768Z,61.55
2023-04-09T19:10:37.357Z,61.62
2023-04-09T19:13:06.011Z,61.81
2023-04-09T19:15:33.768Z,60.92
2023-04-09T19:18:01.387Z,60.07
2023-04-09T19:20:29.850Z,58.28
2023-04-09T19:22:58.133Z,58.24
2023-04-09T19:25:25.766Z,59.75
2023-04-09T19:27:54.923Z,61.00
2023-04-09T19:30:22.228Z,63.29
2023-04-09T19:32:49.600Z,65.10
2023-04-09T19:35:18.277Z,64.55
2023-04-09T19:37:45.776Z,64.13
2023-04-09T19:40:17.295Z,63.78
2023-04-09T19:42:45.519Z,63.65
2023-04-09T19:45:13.196Z,63.73
2023-04-09T19:47:40.534Z,63.49
2023-04-09T19:50:08.735Z,64.29
2023-04-09T19:52:36.047Z,63.44
2023-04-09T19:55:04.861Z,62.56
2023-04-09T19:57:32.642Z,61.88
2023-04-09T19:59:59.760Z,61.77
2023-04-09T20:02:27.214Z,62.29
2023-04-09T20:04:55.011Z,61.77
2023-04-09T20:07:22.288Z,61.78
2023-04-09T20:09:50.165Z,61.40
2023-04-09T20:12:18.241Z,60.88
2023-04-09T20:14:46.473Z,60.91
2023-04-09T20:17:14.152Z,60.52
2023-04-09T20:19:41.581Z,59.86
2023-04-09T20:22:08.755Z,58.83
2023-04-09T20:24:36.186Z,59.00
2023-04-09T20:27:04.599Z,60.13
2023-04-09T20:29:32.423Z,61.20
2023-04-09T20:31:59.986Z,64.03
2023-04-09T20:34:28.423Z,65.53
2023-04-09T20:36:57.226Z,65.02
2023-04-09T20:39:27.342Z,63.84
2023-04-09T20:41:57.151Z,63.66
2023-04-09T20:44:24.858Z,63.85
2023-04-09T20:46:52.438Z,63.91
2023-04-09T20:49:20.404Z,64.05
2023-04-09T20:51:48.016Z,64.19
2023-04-09T20:54:18.374Z,64.55
2023-04-09T20:56:45.754Z,64.32
2023-04-09T20:59:13.000Z,64.06
2023-04-09T21:01:40.778Z,64.00
2023-04-09T21:04:09.448Z,64.17
2023-04-09T21:06:36.799Z,64.19
2023-04-09T21:09:04.133Z,64.24
2023-04-09T21:11:31.634Z,64.22
2023-04-09T21:13:59.178Z,64.52
2023-04-09T21:16:28.887Z,64.84
2023-04-09T21:18:56.877Z,64.71
2023-04-09T21:21:24.493Z,64.89
2023-04-09T21:23:51.714Z,65.04
2023-04-09T21:26:19.511Z,65.38
2023-04-09T21:28:48.635Z,65.60
2023-04-09T21:31:16.271Z,65.64
2023-04-09T21:33:43.989Z,65.89
2023-04-09T21:36:11.320Z,65.90
2023-04-09T21:38:38.768Z,65.87
2023-04-09T21:41:07.124Z,65.83
2023-04-09T21:43:35.827Z,65.76
2023-04-09T21:46:03.486Z,65.77
2023-04-09T21:48:31.533Z,65.79
2023-04-09T21:50:58.918Z,65.82
2023-04-09T21:53:27.591Z,66.01
2023-04-09T21:55:55.231Z,66.11
2023-04-09T21:58:22.635Z,66.24
2023-04-09T22:00:49.886Z,66.23
2023-04-09T22:03:18.010Z,66.54
2023-04-09T22:05:45.469Z,66.56
2023-04-09T22:08:13.643Z,66.59
2023-04-09T22:10:41.245Z,66.45
2023-04-09T22:13:08.653Z,66.49
2023-04-09T22:15:36.021Z,66.41
2023-04-09T22:18:03.727Z,67.01
2023-04-09T22:20:32.378Z,67.34
2023-04-09T22:23:00.049Z,67.40
2023-04-09T22:25:27.689Z,67.39
2023-04-09T22:27:55.007Z,67.39
2023-04-09T22:30:24.166Z,67.52
2023-04-09T22:32:52.355Z,67.51
2023-04-09T22:35:19.908Z,67.48
2023-04-09T22:37:47.386Z,67.29
2023-04-09T22:40:17.079Z,67.33
2023-04-09T22:42:47.179Z,67.38
2023-04-09T22:45:14.910Z,67.52
2023-04-09T22:47:42.396Z,67.67
2023-04-09T22:50:11.574Z,67.49
2023-04-09T22:52:38.598Z,67.33
2023-04-09T22:55:07.059Z,67.32
2023-04-09T22:57:34.674Z,67.25
2023-04-09T23:00:02.234Z,67.27
2023-04-09T23:02:29.969Z,67.17
2023-04-09T23:04:57.853Z,67.00
2023-04-09T23:07:25.040Z,67.18
2023-04-09T23:09:55.855Z,67.61
2023-04-09T23:12:23.705Z,67.75
2023-04-09T23:14:51.640Z,67.86
2023-04-09T23:17:19.447Z,67.99
2023-04-09T23:19:46.703Z,68.16
2023-04-09T23:22:13.886Z,68.42
2023-04-09T23:24:41.258Z,68.38
2023-04-09T23:27:08.959Z,68.38
2023-04-09T23:29:36.120Z,68.21
2023-04-09T23:32:04.063Z,68.69
2023-04-09T23:34:31.306Z,68.46
2023-04-09T23:36:58.451Z,69.11
2023-04-09T23:39:25.953Z,69.52
2023-04-09T23:41:53.433Z,69.48
2023-04-09T23:44:20.680Z,70.00
2023-04-09T23:46:48.550Z,69.18
2023-04-09T23:49:16.625Z,69.71
2023-04-09T23:51:43.963Z,69.65
2023-04-09T23:54:11.400Z,70.09
2023-04-09T23:56:39.628Z,70.20
2023-04-09T23:59:06.801Z,70.68
